createdAt,value
2022-12-04T00:02:04.577Z,100.00
2022-12-04T00:04:51.194Z,100.00
2022-12-04T00:07:38.067Z,100.00
2022-12-04T00:10:24.810Z,100.00
2022-12-04T00:13:11.709Z,100.00
2022-12-04T00:15:59.317Z,100.00
2022-12-04T00:18:46.855Z,100.00
2022-12-04T00:21:33.772Z,100.00
2022-12-04T00:24:20.155Z,100.00
2022-12-04T00:27:06.590Z,100.00
2022-12-04T00:29:54.193Z,100.00
2022-12-04T00:32:40.943Z,100.00
2022-12-04T00:35:27.450Z,100.00
2022-12-04T00:38:14.341Z,100.00
2022-12-04T00:41:03.558Z,100.00
2022-12-04T00:43:50.423Z,100.00
2022-12-04T00:46:36.878Z,100.00
2022-12-04T00:49:23.524Z,100.00
2022-12-04T00:52:09.934Z,100.00
2022-12-04T00:54:56.948Z,100.00
2022-12-04T00:57:43.366Z,100.00
2022-12-04T01:00:30.496Z,100.00
2022-12-04T01:03:17.172Z,100.00
2022-12-04T01:06:04.361Z,100.00
2022-12-04T01:08:52.161Z,100.00
2022-12-04T01:11:38.807Z,100.00
2022-12-04T01:14:25.599Z,100.00
2022-12-04T01:17:13.229Z,100.00
2022-12-04T01:19:59.841Z,100.00
2022-12-04T01:22:47.620Z,100.00
2022-12-04T01:25:34.373Z,100.00
2022-12-04T01:28:21.569Z,100.00
2022-12-04T01:31:17.457Z,100.00
2022-12-04T01:34:04.298Z,100.00
2022-12-04T01:36:51.499Z,100.00
2022-12-04T01:39:37.940Z,100.00
2022-12-04T01:42:25.577Z,100.00
2022-12-04T01:45:47.329Z,100.00
2022-12-04T01:48:37.754Z,100.00
2022-12-04T01:51:33.822Z,100.00
2022-12-04T01:54:28.684Z,100.00
2022-12-04T01:57:18.334Z,100.00
2022-12-04T02:00:09.342Z,100.00
2022-12-04T02:02:56.074Z,100.00
2022-12-04T02:05:43.037Z,100.00
2022-12-04T02:08:30.642Z,100.00
2022-12-04T02:11:32.257Z,100.00
2022-12-04T02:14:37.734Z,100.00
2022-12-04T02:17:27.266Z,100.00
2022-12-04T02:20:42.714Z,100.00
2022-12-04T02:24:00.121Z,100.00
2022-12-04T02:26:53.353Z,100.00
2022-12-04T02:30:04.419Z,100.00
2022-12-04T02:33:33.512Z,100.00
2022-12-04T02:36:24.243Z,100.00
2022-12-04T02:39:41.802Z,100.00
2022-12-04T02:42:45.143Z,100.00
2022-12-04T02:45:38.057Z,100.00
2022-12-04T02:48:28.586Z,100.00
2022-12-04T02:51:18.552Z,100.00
2022-12-04T02:54:14.310Z,100.00
2022-12-04T02:57:04.842Z,100.00
2022-12-04T02:59:54.047Z,100.00
2022-12-04T03:03:06.088Z,100.00
2022-12-04T03:06:04.946Z,100.00
2022-12-04T03:08:57.488Z,100.00
2022-12-04T03:11:50.065Z,100.00
2022-12-04T03:14:43.090Z,100.00
2022-12-04T03:17:39.911Z,100.00
2022-12-04T03:20:28.456Z,100.00
2022-12-04T03:23:20.979Z,100.00
2022-12-04T03:26:15.737Z,100.00
2022-12-04T03:29:11.989Z,100.00
2022-12-04T03:32:11.574Z,100.00
2022-12-04T03:35:15.972Z,100.00
2022-12-04T03:38:08.671Z,100.00
2022-12-04T03:41:33.483Z,100.00
2022-12-04T03:44:39.001Z,100.00
2022-12-04T03:47:46.651Z,100.00
2022-12-04T03:50:46.801Z,100.00
2022-12-04T03:53:47.551Z,100.00
2022-12-04T03:56:40.652Z,100.00
2022-12-04T03:59:35.311Z,100.00
2022-12-04T04:02:25.431Z,100.00
2022-12-04T04:05:14.932Z,100.00
2022-12-04T04:08:24.019Z,100.00
2022-12-04T04:11:17.844Z,100.00
2022-12-04T04:14:30.984Z,100.00
2022-12-04T04:17:41.446Z,100.00
2022-12-04T04:20:55.649Z,100.00
2022-12-04T04:24:05.291Z,100.00
2022-12-04T04:26:53.097Z,100.00
2022-12-04T04:29:42.097Z,100.00
2022-12-04T04:32:43.329Z,100.00
2022-12-04T04:36:02.663Z,100.00
2022-12-04T04:39:26.895Z,100.00
2022-12-04T04:42:25.374Z,100.00
2022-12-04T04:45:22.352Z,100.00
2022-12-04T04:48:30.188Z,100.00
2022-12-04T04:51:18.093Z,100.00
2022-12-04T04:54:09.933Z,100.00
2022-12-04T04:56:56.844Z,100.00
2022-12-04T04:59:43.303Z,100.00
2022-12-04T05:02:30.284Z,100.00
2022-12-04T05:05:20.437Z,100.00
2022-12-04T05:08:07.278Z,100.00
2022-12-04T05:10:54.534Z,100.00
2022-12-04T05:13:41.971Z,100.00
2022-12-04T05:16:28.579Z,100.00
2022-12-04T05:19:33.766Z,100.00
2022-12-04T05:22:32.202Z,100.00
2022-12-04T05:25:18.796Z,100.00
2022-12-04T05:28:06.027Z,100.00
2022-12-04T05:30:57.781Z,100.00
2022-12-04T05:33:44.478Z,100.00
2022-12-04T05:36:30.842Z,100.00
2022-12-04T05:39:17.597Z,100.00
2022-12-04T05:42:04.314Z,100.00
2022-12-04T05:44:51.063Z,100.00
2022-12-04T05:47:41.834Z,100.00
2022-12-04T05:50:29.511Z,100.00
2022-12-04T05:53:15.832Z,100.00
2022-12-04T05:56:04.446Z,100.00
2022-12-04T05:58:50.832Z,100.00
2022-12-04T06:01:37.516Z,100.00
2022-12-04T06:04:25.370Z,100.00
2022-12-04T06:07:12.008Z,100.00
2022-12-04T06:09:58.909Z,100.00
2022-12-04T06:12:45.779Z,100.00
2022-12-04T06:15:37.608Z,100.00
2022-12-04T06:18:24.056Z,100.00
2022-12-04T06:21:11.296Z,100.00
2022-12-04T06:23:58.171Z,100.00
2022-12-04T06:27:11.140Z,100.00
2022-12-04T06:29:51.677Z,100.00
2022-12-04T06:32:38.534Z,100.00
2022-12-04T06:35:25.024Z,100.00
2022-12-04T06:38:13.263Z,100.00
2022-12-04T06:40:59.781Z,100.00
2022-12-04T06:43:46.267Z,100.00
2022-12-04T06:46:34.505Z,100.00
2022-12-04T06:49:22.995Z,100.00
2022-12-04T06:52:09.679Z,100.00
2022-12-04T06:54:56.288Z,100.00
2022-12-04T06:57:42.911Z,99.90
2022-12-04T07:00:29.429Z,99.89
2022-12-04T07:03:15.485Z,100.00
2022-12-04T07:06:19.265Z,100.00
2022-12-04T07:09:07.657Z,100.00
2022-12-04T07:11:55.136Z,100.00
2022-12-04T07:14:41.717Z,100.00
2022-12-04T07:17:28.570Z,100.00
2022-12-04T07:20:15.149Z,100.00
2022-12-04T07:23:07.102Z,100.00
2022-12-04T07:25:54.005Z,100.00
2022-12-04T07:28:42.001Z,99.98
2022-12-04T07:31:30.634Z,99.87
2022-12-04T07:34:17.623Z,99.99
2022-12-04T07:37:04.341Z,100.00
2022-12-04T07:39:52.632Z,100.00
2022-12-04T07:42:39.768Z,100.00
2022-12-04T07:45:26.539Z,100.00
2022-12-04T07:48:13.666Z,100.00
2022-12-04T07:51:09.624Z,100.00
2022-12-04T07:54:03.810Z,100.00
2022-12-04T07:56:51.065Z,100.00
2022-12-04T07:59:37.909Z,100.00
2022-12-04T08:02:24.612Z,100.00
2022-12-04T08:05:11.339Z,100.00
2022-12-04T08:07:58.108Z,100.00
2022-12-04T08:10:45.247Z,100.00
2022-12-04T08:13:32.547Z,100.00
2022-12-04T08:16:19.505Z,100.00
2022-12-04T08:19:06.779Z,99.94
2022-12-04T08:21:56.981Z,99.57
2022-12-04T08:24:44.090Z,99.49
2022-12-04T08:27:30.914Z,99.22
2022-12-04T08:30:18.131Z,99.35
2022-12-04T08:33:05.239Z,99.17
2022-12-04T08:35:52.374Z,98.89
2022-12-04T08:38:40.239Z,98.79
2022-12-04T08:41:27.497Z,98.65
2022-12-04T08:44:14.183Z,98.62
2022-12-04T08:47:01.332Z,98.36
2022-12-04T08:49:48.375Z,98.18
2022-12-04T08:52:35.318Z,97.96
2022-12-04T08:55:22.468Z,97.81
2022-12-04T08:58:10.616Z,97.83
2022-12-04T09:00:57.214Z,97.87
2022-12-04T09:03:45.004Z,97.98
2022-12-04T09:06:33.399Z,98.04
2022-12-04T09:09:20.317Z,98.07
2022-12-04T09:12:07.425Z,97.62
2022-12-04T09:14:54.632Z,97.34
2022-12-04T09:17:41.232Z,97.34
2022-12-04T09:20:27.985Z,97.43
2022-12-04T09:23:14.638Z,97.62
2022-12-04T09:26:01.747Z,98.06
2022-12-04T09:28:49.601Z,97.92
2022-12-04T09:31:37.181Z,97.88
2022-12-04T09:34:24.138Z,97.59
2022-12-04T09:37:11.386Z,97.78
2022-12-04T09:39:58.645Z,97.53
2022-12-04T09:43:07.594Z,97.28
2022-12-04T09:45:59.962Z,97.41
2022-12-04T09:48:48.752Z,97.36
2022-12-04T09:51:38.558Z,97.16
2022-12-04T09:54:33.448Z,96.77
2022-12-04T09:57:41.614Z,96.74
2022-12-04T10:00:30.601Z,96.79
2022-12-04T10:03:20.934Z,97.12
2022-12-04T10:06:14.887Z,97.01
2022-12-04T10:09:22.672Z,96.89
2022-12-04T10:12:22.430Z,97.08
2022-12-04T10:15:33.239Z,97.42
2022-12-04T10:18:32.045Z,97.09
2022-12-04T10:21:54.479Z,97.11
2022-12-04T10:24:53.306Z,96.93
2022-12-04T10:27:50.899Z,96.91
2022-12-04T10:30:41.630Z,96.89
2022-12-04T10:34:06.412Z,96.88
2022-12-04T10:36:55.421Z,97.03
2022-12-04T10:39:50.411Z,96.54
2022-12-04T10:43:01.071Z,96.21
2022-12-04T10:45:48.294Z,96.15
2022-12-04T10:48:39.199Z,96.28
2022-12-04T10:51:26.233Z,96.44
2022-12-04T10:54:35.405Z,96.11
2022-12-04T10:57:21.987Z,96.10
2022-12-04T11:00:28.803Z,95.97
2022-12-04T11:03:28.591Z,95.94
2022-12-04T11:06:15.399Z,96.16
2022-12-04T11:09:03.951Z,96.25
2022-12-04T11:11:52.388Z,96.23
2022-12-04T11:14:44.046Z,96.22
2022-12-04T11:17:34.018Z,96.11
2022-12-04T11:20:25.255Z,96.16
2022-12-04T11:23:16.090Z,96.00
2022-12-04T11:26:06.237Z,95.82
2022-12-04T11:28:55.189Z,95.83
2022-12-04T11:31:42.042Z,95.99
2022-12-04T11:34:36.640Z,95.59
2022-12-04T11:37:30.388Z,95.71
2022-12-04T11:40:20.233Z,95.65
2022-12-04T11:43:14.860Z,95.66
2022-12-04T11:46:06.338Z,95.98
2022-12-04T11:48:53.184Z,96.25
2022-12-04T11:51:39.568Z,96.58
2022-12-04T11:54:51.973Z,96.43
2022-12-04T11:57:54.183Z,96.33
2022-12-04T12:01:19.608Z,96.59
2022-12-04T12:04:29.183Z,96.49
2022-12-04T12:07:38.075Z,96.67
2022-12-04T12:10:44.285Z,96.56
2022-12-04T12:13:46.890Z,96.40
2022-12-04T12:16:51.332Z,96.38
2022-12-04T12:20:00.170Z,96.34
2022-12-04T12:23:31.737Z,96.56
2022-12-04T12:26:18.989Z,96.75
2022-12-04T12:29:10.405Z,96.75
2022-12-04T12:32:09.807Z,96.86
2022-12-04T12:34:56.793Z,96.49
2022-12-04T12:38:17.493Z,96.50
2022-12-04T12:41:14.381Z,96.34
2022-12-04T12:44:17.669Z,96.21
2022-12-04T12:47:17.993Z,96.09
2022-12-04T12:50:13.810Z,96.36
2022-12-04T12:53:09.721Z,96.37
2022-12-04T12:56:00.914Z,96.21
2022-12-04T12:58:53.499Z,96.15
2022-12-04T13:02:16.345Z,96.37
2022-12-04T13:05:09.660Z,97.00
2022-12-04T13:08:03.603Z,96.98
2022-12-04T13:11:00.782Z,97.02
2022-12-04T13:13:54.159Z,96.99
2022-12-04T13:16:49.137Z,97.21
2022-12-04T13:19:46.399Z,96.94
2022-12-04T13:23:01.676Z,96.77
2022-12-04T13:25:56.525Z,96.66
2022-12-04T13:28:46.368Z,96.50
2022-12-04T13:31:53.796Z,95.99
2022-12-04T13:35:11.405Z,96.12
2022-12-04T13:38:23.869Z,96.63
2022-12-04T13:41:20.551Z,96.95
2022-12-04T13:44:20.611Z,96.40
2022-12-04T13:47:11.347Z,96.12
2022-12-04T13:50:19.564Z,96.28
2022-12-04T13:53:06.932Z,96.64
2022-12-04T13:55:57.172Z,96.43
2022-12-04T13:58:43.868Z,96.48
2022-12-04T14:01:41.033Z,96.18
2022-12-04T14:04:37.439Z,95.97
2022-12-04T14:07:26.325Z,95.96
2022-12-04T14:10:16.000Z,95.92
2022-12-04T14:13:16.325Z,95.92
2022-12-04T14:16:17.570Z,96.22
2022-12-04T14:19:05.852Z,96.19
2022-12-04T14:21:54.631Z,96.20
2022-12-04T14:24:41.339Z,95.95
2022-12-04T14:27:35.070Z,96.20
2022-12-04T14:30:28.929Z,96.35
2022-12-04T14:33:24.648Z,96.28
2022-12-04T14:36:19.280Z,95.77
2022-12-04T14:39:17.063Z,95.44
2022-12-04T14:42:13.128Z,95.67
2022-12-04T14:45:02.662Z,95.58
2022-12-04T14:48:03.332Z,95.80
2022-12-04T14:51:19.089Z,96.15
2022-12-04T14:54:26.795Z,95.85
2022-12-04T14:57:31.823Z,95.77
2022-12-04T15:00:22.344Z,96.13
2022-12-04T15:03:13.732Z,96.23
2022-12-04T15:06:12.044Z,96.19
2022-12-04T15:09:19.441Z,96.31
2022-12-04T15:12:33.568Z,96.22
2022-12-04T15:15:25.104Z,95.90
2022-12-04T15:18:16.878Z,96.00
2022-12-04T15:21:04.639Z,96.06
2022-12-04T15:23:51.602Z,96.15
2022-12-04T15:26:40.006Z,96.18
2022-12-04T15:29:31.609Z,95.94
2022-12-04T15:32:22.876Z,95.79
2022-12-04T15:35:49.097Z,95.87
2022-12-04T15:38:36.411Z,95.91
2022-12-04T15:41:31.184Z,95.96
2022-12-04T15:44:29.220Z,95.79
2022-12-04T15:47:20.134Z,95.66
2022-12-04T15:50:13.826Z,95.63
2022-12-04T15:53:15.639Z,95.86
2022-12-04T15:56:06.697Z,95.86
2022-12-04T15:58:58.013Z,95.87
2022-12-04T16:01:45.301Z,95.59
2022-12-04T16:04:38.851Z,95.55
2022-12-04T16:07:33.097Z,95.49
2022-12-04T16:10:36.010Z,95.73
2022-12-04T16:14:01.695Z,95.79
2022-12-04T16:16:52.982Z,95.98
2022-12-04T16:19:42.388Z,95.87
2022-12-04T16:22:30.220Z,95.79
2022-12-04T16:25:18.143Z,95.49
2022-12-04T16:28:05.016Z,95.27
2022-12-04T16:30:53.195Z,94.96
2022-12-04T16:33:40.973Z,94.95
2022-12-04T16:36:27.958Z,95.48
2022-12-04T16:39:15.211Z,95.55
2022-12-04T16:42:20.221Z,95.43
2022-12-04T16:45:29.716Z,95.54
2022-12-04T16:48:16.974Z,95.79
2022-12-04T16:51:04.211Z,95.85
2022-12-04T16:53:53.516Z,95.92
2022-12-04T16:56:40.808Z,95.89
2022-12-04T16:59:30.331Z,95.67
2022-12-04T17:02:26.381Z,95.46
2022-12-04T17:05:28.542Z,95.12
2022-12-04T17:08:16.304Z,95.15
2022-12-04T17:11:03.701Z,94.87
2022-12-04T17:13:51.176Z,95.21
2022-12-04T17:16:45.227Z,95.26
2022-12-04T17:19:32.494Z,95.52
2022-12-04T17:22:23.603Z,95.16
2022-12-04T17:25:12.219Z,95.21
2022-12-04T17:28:12.295Z,95.50
2022-12-04T17:31:01.673Z,95.74
2022-12-04T17:33:49.595Z,95.87
2022-12-04T17:36:37.559Z,95.71
2022-12-04T17:39:25.482Z,95.42
2022-12-04T17:42:12.303Z,95.54
2022-12-04T17:44:59.713Z,95.48
2022-12-04T17:47:46.819Z,95.23
2022-12-04T17:50:34.044Z,95.03
2022-12-04T17:53:20.882Z,95.07
2022-12-04T17:56:14.889Z,95.14
2022-12-04T17:59:02.239Z,95.01
2022-12-04T18:01:53.454Z,95.13
2022-12-04T18:04:40.708Z,95.03
2022-12-04T18:07:27.950Z,95.09
2022-12-04T18:10:14.988Z,95.25
2022-12-04T18:13:01.770Z,95.53
2022-12-04T18:15:48.803Z,95.24
2022-12-04T18:18:36.845Z,95.31
2022-12-04T18:21:24.690Z,94.96
2022-12-04T18:24:12.019Z,94.91
2022-12-04T18:26:59.270Z,95.17
2022-12-04T18:29:46.599Z,95.21
2022-12-04T18:32:34.013Z,95.05
2022-12-04T18:35:21.227Z,94.85
2022-12-04T18:38:08.357Z,94.76
2022-12-04T18:40:57.124Z,95.25
2022-12-04T18:43:45.636Z,95.41
2022-12-04T18:46:33.208Z,95.19
2022-12-04T18:49:19.839Z,95.04
2022-12-04T18:52:09.796Z,95.07
2022-12-04T18:54:56.811Z,95.36
2022-12-04T18:57:43.957Z,95.29
2022-12-04T19:00:30.484Z,95.28
2022-12-04T19:03:16.954Z,95.48
2022-12-04T19:06:04.077Z,95.33
2022-12-04T19:08:51.877Z,95.23
2022-12-04T19:11:39.696Z,95.16
2022-12-04T19:14:26.074Z,95.33
2022-12-04T19:17:23.952Z,95.52
2022-12-04T19:20:13.600Z,95.16
2022-12-04T19:22:59.746Z,94.94
2022-12-04T19:25:55.176Z,94.71
2022-12-04T19:28:41.520Z,94.79
2022-12-04T19:31:31.912Z,94.88
2022-12-04T19:34:18.661Z,94.79
2022-12-04T19:37:06.008Z,94.97
2022-12-04T19:39:52.365Z,94.80
2022-12-04T19:42:38.905Z,94.74
2022-12-04T19:45:25.405Z,94.73
2022-12-04T19:48:11.821Z,94.74
2022-12-04T19:51:03.819Z,94.95
2022-12-04T19:53:54.672Z,95.04
2022-12-04T19:56:41.870Z,94.96
2022-12-04T19:59:36.430Z,95.10
2022-12-04T20:02:24.652Z,95.06
2022-12-04T20:05:11.379Z,94.93
2022-12-04T20:10:43.897Z,94.62
2022-12-04T20:13:30.591Z,94.44
2022-12-04T20:16:18.605Z,94.42
2022-12-04T20:19:09.220Z,94.04
2022-12-04T20:21:59.307Z,93.82
2022-12-04T20:24:45.983Z,94.44
2022-12-04T20:27:33.445Z,94.49
2022-12-04T20:30:19.728Z,94.42
2022-12-04T20:33:06.478Z,93.93
2022-12-04T20:35:56.545Z,93.72
2022-12-04T20:38:43.507Z,93.74
2022-12-04T20:41:31.744Z,93.59
2022-12-04T20:44:20.119Z,93.72
2022-12-04T20:47:06.785Z,94.22
2022-12-04T20:49:53.048Z,94.17
2022-12-04T20:52:40.001Z,94.03
2022-12-04T20:55:26.241Z,94.25
2022-12-04T20:58:13.920Z,94.07
2022-12-04T21:01:12.204Z,93.96
2022-12-04T21:04:00.387Z,93.95
2022-12-04T21:06:47.080Z,94.44
2022-12-04T21:09:33.803Z,94.44
2022-12-04T21:12:43.179Z,94.25
2022-12-04T21:15:48.722Z,94.02
2022-12-04T21:18:36.945Z,93.75
2022-12-04T21:21:23.444Z,93.85
2022-12-04T21:24:12.879Z,93.77
2022-12-04T21:26:59.185Z,93.96
2022-12-04T21:29:45.868Z,94.09
2022-12-04T21:32:32.565Z,93.78
2022-12-04T21:35:18.999Z,93.78
2022-12-04T21:38:06.671Z,93.64
2022-12-04T21:40:53.232Z,93.73
2022-12-04T21:43:39.763Z,93.42
2022-12-04T21:46:26.070Z,93.27
2022-12-04T21:49:15.339Z,93.34
2022-12-04T21:52:01.910Z,93.09
2022-12-04T21:54:53.016Z,93.61
2022-12-04T21:57:41.494Z,93.78
2022-12-04T22:00:27.828Z,93.94
2022-12-04T22:03:15.095Z,93.44
2022-12-04T22:06:11.261Z,93.41
2022-12-04T22:08:58.089Z,93.34
2022-12-04T22:11:44.999Z,93.26
2022-12-04T22:14:32.961Z,93.00
2022-12-04T22:17:21.104Z,92.63
2022-12-04T22:20:08.638Z,92.79
2022-12-04T22:22:56.304Z,92.84
2022-12-04T22:25:45.566Z,92.95
2022-12-04T22:28:32.491Z,93.30
2022-12-04T22:31:21.289Z,93.52
2022-12-04T22:34:07.657Z,93.74
2022-12-04T22:36:54.106Z,93.61
2022-12-04T22:39:40.860Z,93.66
2022-12-04T22:42:27.602Z,93.95
2022-12-04T22:45:13.988Z,93.89
2022-12-04T22:48:00.679Z,93.66
2022-12-04T22:50:58.869Z,93.61
2022-12-04T22:53:54.529Z,93.60
2022-12-04T22:56:43.421Z,93.35
2022-12-04T22:59:30.080Z,93.34
2022-12-04T23:02:16.757Z,93.31
2022-12-04T23:05:03.860Z,93.58
2022-12-04T23:07:50.234Z,94.02
2022-12-04T23:10:38.276Z,94.41
2022-12-04T23:13:24.819Z,94.23
2022-12-04T23:16:15.572Z,94.09
2022-12-04T23:19:07.528Z,94.36
2022-12-04T23:21:57.224Z,94.19
2022-12-04T23:24:43.942Z,94.12
2022-12-04T23:27:33.336Z,94.13
2022-12-04T23:30:26.182Z,93.87
2022-12-04T23:33:13.777Z,94.07
2022-12-04T23:36:02.673Z,94.42
2022-12-04T23:38:49.953Z,94.34
2022-12-04T23:41:36.256Z,94.68
2022-12-04T23:44:22.494Z,94.96
2022-12-04T23:47:09.348Z,94.47
2022-12-04T23:49:56.257Z,94.14
2022-12-04T23:52:42.942Z,94.18
2022-12-04T23:55:34.082Z,93.88
2022-12-04T23:58:21.215Z,94.16
